createdAt,value
2019-03-01T00:00:50.781Z,913.94
2019-03-01T00:01:50.758Z,913.94
2019-03-01T00:02:50.700Z,913.97
2019-03-01T00:03:50.678Z,913.98
2019-03-01T00:04:50.655Z,914.00
2019-03-01T00:05:50.615Z,914.02
2019-03-01T00:06:50.581Z,914.04
2019-03-01T00:07:50.721Z,914.03
2019-03-01T00:08:50.494Z,914.06
2019-03-01T00:09:50.488Z,914.12
2019-03-01T00:10:50.460Z,914.08
2019-03-01T00:11:50.426Z,914.15
2019-03-01T00:13:50.614Z,914.17
2019-03-01T00:14:50.320Z,914.19
2019-03-01T00:15:50.296Z,914.19
2019-03-01T00:16:50.254Z,914.20
2019-03-01T00:17:50.233Z,914.19
2019-03-01T00:18:50.329Z,914.22
2019-03-01T00:19:50.141Z,914.25
2019-03-01T00:20:50.117Z,914.23
2019-03-01T00:21:50.094Z,914.23
2019-03-01T00:22:50.064Z,914.25
2019-03-01T00:23:50.029Z,914.26
2019-03-01T00:24:50.149Z,914.30
2019-03-01T00:25:50.027Z,914.29
2019-03-01T00:26:49.939Z,914.28
2019-03-01T00:27:49.900Z,914.31
2019-03-01T00:28:49.872Z,914.27
2019-03-01T00:29:49.835Z,914.30
2019-03-01T00:30:49.814Z,914.33
2019-03-01T00:31:49.771Z,914.32
2019-03-01T00:32:49.741Z,914.30
2019-03-01T00:33:49.698Z,914.34
2019-03-01T00:34:49.692Z,914.35
2019-03-01T00:35:49.735Z,914.33
2019-03-01T00:36:49.751Z,914.38
2019-03-01T00:37:49.592Z,914.39
2019-03-01T00:38:49.544Z,914.40
2019-03-01T00:39:49.509Z,914.41
2019-03-01T00:40:49.633Z,914.40
2019-03-01T00:41:49.456Z,914.39
2019-03-01T00:42:49.415Z,914.38
2019-03-01T00:43:49.357Z,914.37
2019-03-01T00:44:49.352Z,914.37
2019-03-01T00:45:49.404Z,914.36
2019-03-01T00:46:49.263Z,914.32
2019-03-01T00:47:49.266Z,914.35
2019-03-01T00:48:49.235Z,914.35
2019-03-01T00:49:49.176Z,914.31
2019-03-01T00:50:49.177Z,914.34
2019-03-01T00:51:49.110Z,914.31
2019-03-01T00:52:49.068Z,914.33
2019-03-01T00:53:49.041Z,914.37
2019-03-01T00:54:49.000Z,914.32
2019-03-01T00:55:48.989Z,914.37
2019-03-01T00:56:48.982Z,914.34
2019-03-01T00:57:48.947Z,914.38
2019-03-01T00:58:48.937Z,914.39
2019-03-01T00:59:48.868Z,914.34
2019-03-01T01:00:48.835Z,914.39
2019-03-01T01:01:48.852Z,914.36
2019-03-01T01:02:48.774Z,914.35
2019-03-01T01:03:48.724Z,914.31
2019-03-01T01:04:48.680Z,914.32
2019-03-01T01:05:48.657Z,914.34
2019-03-01T01:06:48.633Z,914.35
2019-03-01T01:07:48.595Z,914.32
2019-03-01T01:08:48.565Z,914.36
2019-03-01T01:09:48.532Z,914.32
2019-03-01T01:10:48.511Z,914.32
2019-03-01T01:11:48.619Z,914.34
2019-03-01T01:12:48.448Z,914.30
2019-03-01T01:13:48.410Z,914.31
2019-03-01T01:14:48.360Z,914.27
2019-03-01T01:15:48.347Z,914.24
2019-03-01T01:16:48.308Z,914.26
2019-03-01T01:17:48.431Z,914.25
2019-03-01T01:18:48.254Z,914.24
2019-03-01T01:19:48.212Z,914.25
2019-03-01T01:20:48.183Z,914.24
2019-03-01T01:21:48.138Z,914.26
2019-03-01T01:22:48.100Z,914.25
2019-03-01T01:23:48.086Z,914.24
2019-03-01T01:24:48.032Z,914.26
2019-03-01T01:25:48.023Z,914.27
2019-03-01T01:26:47.991Z,914.30
2019-03-01T01:27:47.950Z,914.33
2019-03-01T01:28:48.328Z,914.32
2019-03-01T01:29:47.886Z,914.30
2019-03-01T01:30:47.838Z,914.32
2019-03-01T01:31:47.857Z,914.34
2019-03-01T01:32:47.781Z,914.36
2019-03-01T01:33:47.739Z,914.35
2019-03-01T01:34:47.891Z,914.37
2019-03-01T01:35:47.690Z,914.40
2019-03-01T01:36:47.639Z,914.36
2019-03-01T01:37:47.625Z,914.37
2019-03-01T01:38:47.589Z,914.38
2019-03-01T01:39:47.551Z,914.39
2019-03-01T01:40:47.511Z,914.41
2019-03-01T01:41:47.490Z,914.39
2019-03-01T01:42:47.462Z,914.38
2019-03-01T01:43:47.422Z,914.37
2019-03-01T01:44:47.390Z,914.40
2019-03-01T01:45:47.365Z,914.36
2019-03-01T01:46:47.334Z,914.37
2019-03-01T01:47:47.299Z,914.38
2019-03-01T01:48:47.260Z,914.35
2019-03-01T01:49:47.297Z,914.34
2019-03-01T01:50:47.321Z,914.33
2019-03-01T01:51:47.161Z,914.33
2019-03-01T01:52:47.127Z,914.32
2019-03-01T01:53:47.083Z,914.29
2019-03-01T01:54:47.075Z,914.29
2019-03-01T01:55:47.022Z,914.28
2019-03-01T01:56:47.134Z,914.29
2019-03-01T01:57:46.963Z,914.26
2019-03-01T01:58:46.942Z,914.26
2019-03-01T01:59:46.914Z,914.29
2019-03-01T02:00:46.873Z,914.31
2019-03-01T02:01:46.833Z,914.28
2019-03-01T02:02:46.798Z,914.29
2019-03-01T02:03:46.773Z,914.29
2019-03-01T02:04:46.744Z,914.31
2019-03-01T02:05:46.694Z,914.30
2019-03-01T02:06:46.649Z,914.29
2019-03-01T02:07:46.632Z,914.29
2019-03-01T02:08:46.605Z,914.29
2019-03-01T02:09:46.589Z,914.29
2019-03-01T02:10:46.562Z,914.32
2019-03-01T02:11:46.511Z,914.32
2019-03-01T02:12:46.920Z,914.36
2019-03-01T02:13:46.452Z,914.32
2019-03-01T02:14:46.508Z,914.35
2019-03-01T02:15:46.394Z,914.33
2019-03-01T02:16:46.340Z,914.32
2019-03-01T02:17:46.328Z,914.36
2019-03-01T02:18:46.291Z,914.35
2019-03-01T02:19:46.274Z,914.36
2019-03-01T02:20:46.195Z,914.34
2019-03-01T02:21:46.180Z,914.37
2019-03-01T02:22:46.131Z,914.32
2019-03-01T02:23:46.129Z,914.35
2019-03-01T02:24:46.069Z,914.35
2019-03-01T02:25:46.053Z,914.32
2019-03-01T02:26:46.012Z,914.32
2019-03-01T02:27:45.988Z,914.27
2019-03-01T02:28:45.957Z,914.28
2019-03-01T02:29:45.914Z,914.27
2019-03-01T02:30:45.894Z,914.24
2019-03-01T02:31:45.843Z,914.21
2019-03-01T02:32:45.819Z,914.26
2019-03-01T02:33:45.791Z,914.23
2019-03-01T02:34:45.772Z,914.27
2019-03-01T02:35:45.763Z,914.28
2019-03-01T02:36:45.707Z,914.30
2019-03-01T02:37:45.659Z,914.29
2019-03-01T02:38:45.630Z,914.31
2019-03-01T02:39:45.804Z,914.27
2019-03-01T02:40:45.561Z,914.31
2019-03-01T02:41:45.550Z,914.29
2019-03-01T02:42:45.518Z,914.27
2019-03-01T02:43:45.447Z,914.29
2019-03-01T02:44:45.438Z,914.23
2019-03-01T02:45:45.408Z,914.24
2019-03-01T02:46:45.365Z,914.27
2019-03-01T02:47:45.327Z,914.23
2019-03-01T02:48:45.303Z,914.25
2019-03-01T02:49:45.259Z,914.26
2019-03-01T02:50:45.371Z,914.22
2019-03-01T02:51:45.210Z,914.23
2019-03-01T02:52:45.181Z,914.27
2019-03-01T02:53:45.145Z,914.23
2019-03-01T02:54:45.123Z,914.22
2019-03-01T02:55:45.068Z,914.21
2019-03-01T02:56:45.303Z,914.19
2019-03-01T02:57:45.017Z,914.19
2019-03-01T02:58:44.968Z,914.22
2019-03-01T02:59:44.952Z,914.17
2019-03-01T03:00:44.913Z,914.11
2019-03-01T03:01:44.880Z,914.14
2019-03-01T03:02:44.853Z,914.13
2019-03-01T03:03:44.805Z,914.10
2019-03-01T03:04:44.773Z,914.05
2019-03-01T03:05:44.748Z,914.08
2019-03-01T03:06:44.708Z,914.02
2019-03-01T03:07:44.719Z,914.04
2019-03-01T03:08:44.630Z,914.07
2019-03-01T03:09:44.595Z,914.02
2019-03-01T03:10:44.577Z,913.97
2019-03-01T03:11:44.529Z,913.96
2019-03-01T03:12:44.582Z,913.93
2019-03-01T03:13:44.490Z,913.94
2019-03-01T03:14:44.466Z,913.91
2019-03-01T03:15:44.427Z,913.91
2019-03-01T03:16:44.367Z,913.89
2019-03-01T03:17:44.345Z,913.89
2019-03-01T03:18:44.322Z,913.90
2019-03-01T03:19:44.277Z,913.87
2019-03-01T03:20:44.255Z,913.90
2019-03-01T03:21:44.228Z,913.89
2019-03-01T03:22:44.193Z,913.88
2019-03-01T03:23:44.614Z,913.87
2019-03-01T03:24:44.118Z,913.86
2019-03-01T03:25:44.106Z,913.81
2019-03-01T03:26:44.061Z,913.77
2019-03-01T03:27:44.038Z,913.74
2019-03-01T03:28:44.001Z,913.73
2019-03-01T03:29:44.315Z,913.72
2019-03-01T03:30:43.938Z,913.72
2019-03-01T03:31:43.901Z,913.71
2019-03-01T03:32:43.876Z,913.71
2019-03-01T03:33:43.836Z,913.67
2019-03-01T03:34:43.790Z,913.70
2019-03-01T03:35:43.773Z,913.70
2019-03-01T03:36:43.728Z,913.68
2019-03-01T03:37:43.701Z,913.66
2019-03-01T03:38:43.661Z,913.67
2019-03-01T03:39:43.636Z,913.63
2019-03-01T03:40:43.604Z,913.61
2019-03-01T03:41:43.564Z,913.61
2019-03-01T03:42:43.542Z,913.56
2019-03-01T03:43:43.509Z,913.59
2019-03-01T03:44:43.488Z,913.58
2019-03-01T03:45:43.470Z,913.56
2019-03-01T03:46:43.410Z,913.58
2019-03-01T03:47:43.385Z,913.55
2019-03-01T03:48:43.345Z,913.51
2019-03-01T03:49:43.309Z,913.47
2019-03-01T03:50:43.529Z,913.50
2019-03-01T03:51:43.230Z,913.47
2019-03-01T03:52:43.210Z,913.45
2019-03-01T03:53:43.178Z,913.44
2019-03-01T03:54:43.150Z,913.43
2019-03-01T03:55:43.112Z,913.41
2019-03-01T03:56:43.300Z,913.45
2019-03-01T03:57:43.029Z,913.41
2019-03-01T03:58:42.996Z,913.41
2019-03-01T03:59:42.977Z,913.40
2019-03-01T04:00:42.964Z,913.40
2019-03-01T04:01:42.923Z,913.36
2019-03-01T04:02:42.865Z,913.34
2019-03-01T04:03:42.860Z,913.35
2019-03-01T04:04:42.813Z,913.34
2019-03-01T04:05:42.776Z,913.32
2019-03-01T04:06:42.774Z,913.31
2019-03-01T04:07:42.726Z,913.30
2019-03-01T04:08:42.688Z,913.31
2019-03-01T04:09:42.687Z,913.30
2019-03-01T04:10:42.657Z,913.30
2019-03-01T04:11:42.586Z,913.27
2019-03-01T04:12:42.704Z,913.25
2019-03-01T04:13:42.548Z,913.27
2019-03-01T04:14:42.494Z,913.26
2019-03-01T04:15:42.477Z,913.25
2019-03-01T04:16:42.438Z,913.27
2019-03-01T04:17:42.396Z,913.25
2019-03-01T04:18:42.517Z,913.26
2019-03-01T04:19:42.331Z,913.25
2019-03-01T04:20:42.294Z,913.20
2019-03-01T04:21:42.264Z,913.22
2019-03-01T04:22:42.224Z,913.24
2019-03-01T04:23:42.203Z,913.22
2019-03-01T04:24:42.306Z,913.22
2019-03-01T04:25:42.129Z,913.15
2019-03-01T04:26:42.104Z,913.19
2019-03-01T04:27:42.078Z,913.18
2019-03-01T04:28:42.039Z,913.17
2019-03-01T04:29:41.991Z,913.12
2019-03-01T04:30:41.970Z,913.16
2019-03-01T04:31:41.919Z,913.11
2019-03-01T04:32:41.897Z,913.11
2019-03-01T04:33:41.871Z,913.11
2019-03-01T04:34:41.904Z,913.07
2019-03-01T04:35:41.809Z,913.07
2019-03-01T04:36:41.773Z,913.06
2019-03-01T04:37:41.741Z,913.03
2019-03-01T04:38:41.745Z,913.05
2019-03-01T04:39:41.679Z,913.05
2019-03-01T04:40:41.653Z,913.07
2019-03-01T04:41:41.647Z,913.04
2019-03-01T04:42:41.580Z,913.04
2019-03-01T04:43:41.551Z,913.00
2019-03-01T04:44:41.507Z,913.01
2019-03-01T04:45:41.545Z,912.97
2019-03-01T04:46:41.525Z,912.96
2019-03-01T04:47:41.412Z,912.91
2019-03-01T04:48:41.397Z,912.89
2019-03-01T04:49:41.347Z,912.86
2019-03-01T04:50:41.329Z,912.85
2019-03-01T04:51:41.326Z,912.83
2019-03-01T04:52:41.253Z,912.80
2019-03-01T04:53:41.227Z,912.80
2019-03-01T04:54:41.187Z,912.77
2019-03-01T04:55:41.152Z,912.72
2019-03-01T04:56:41.099Z,912.69
2019-03-01T04:57:41.095Z,912.73
2019-03-01T04:58:41.064Z,912.68
2019-03-01T04:59:41.019Z,912.65
2019-03-01T05:00:40.976Z,912.65
2019-03-01T05:01:40.948Z,912.64
2019-03-01T05:02:40.925Z,912.63
2019-03-01T05:03:40.888Z,912.62
2019-03-01T05:04:40.897Z,912.56
2019-03-01T05:05:40.822Z,912.56
2019-03-01T05:06:40.792Z,912.57
2019-03-01T05:07:40.758Z,912.51
2019-03-01T05:08:40.723Z,912.51
2019-03-01T05:09:40.691Z,912.48
2019-03-01T05:10:40.649Z,912.46
2019-03-01T05:11:40.635Z,912.40
2019-03-01T05:12:40.573Z,912.39
2019-03-01T05:13:40.542Z,912.36
2019-03-01T05:14:40.508Z,912.36
2019-03-01T05:15:40.475Z,912.33
2019-03-01T05:16:40.471Z,912.29
2019-03-01T05:17:40.409Z,912.24
2019-03-01T05:18:40.397Z,912.27
2019-03-01T05:19:40.376Z,912.23
2019-03-01T05:20:40.339Z,912.24
2019-03-01T05:21:40.296Z,912.22
2019-03-01T05:22:40.247Z,912.24
2019-03-01T05:23:40.264Z,912.20
2019-03-01T05:24:40.202Z,912.20
2019-03-01T05:25:40.147Z,912.17
2019-03-01T05:26:40.116Z,912.18
2019-03-01T05:27:40.098Z,912.18
2019-03-01T05:28:40.068Z,912.13
2019-03-01T05:29:40.034Z,912.12
2019-03-01T05:30:40.004Z,912.17
2019-03-01T05:31:40.153Z,912.12
2019-03-01T05:32:39.938Z,912.13
2019-03-01T05:33:39.903Z,912.09
2019-03-01T05:34:39.875Z,912.10
2019-03-01T05:35:39.845Z,912.09
2019-03-01T05:36:39.803Z,912.09
2019-03-01T05:37:39.771Z,912.07
2019-03-01T05:38:39.736Z,912.09
2019-03-01T05:39:39.699Z,912.06
2019-03-01T05:40:39.663Z,912.03
2019-03-01T05:41:39.633Z,912.02
2019-03-01T05:42:39.604Z,912.03
2019-03-01T05:43:39.578Z,912.00
2019-03-01T05:44:39.534Z,912.02
2019-03-01T05:45:39.491Z,912.00
2019-03-01T05:46:39.458Z,911.99
2019-03-01T05:47:39.659Z,911.98
2019-03-01T05:48:39.409Z,911.97
2019-03-01T05:49:39.384Z,911.97
2019-03-01T05:50:39.340Z,911.95
2019-03-01T05:51:39.306Z,911.96
2019-03-01T05:52:39.275Z,911.96
2019-03-01T05:53:39.444Z,911.95
2019-03-01T05:54:39.227Z,911.94
2019-03-01T05:55:39.180Z,911.92
2019-03-01T05:56:39.154Z,911.93
2019-03-01T05:57:39.116Z,911.91
2019-03-01T05:58:39.077Z,911.90
2019-03-01T05:59:39.199Z,911.90
2019-03-01T06:00:39.041Z,911.93
2019-03-01T06:01:38.981Z,911.91
2019-03-01T06:02:38.935Z,911.92
2019-03-01T06:03:38.893Z,911.94
2019-03-01T06:04:38.863Z,911.92
2019-03-01T06:05:38.833Z,911.94
2019-03-01T06:06:38.803Z,911.91
2019-03-01T06:07:38.777Z,911.93
2019-03-01T06:08:38.776Z,911.94
2019-03-01T06:09:38.710Z,911.94
2019-03-01T06:10:38.685Z,911.99
2019-03-01T06:11:38.648Z,911.96
2019-03-01T06:12:38.627Z,912.03
2019-03-01T06:13:38.583Z,912.09
2019-03-01T06:14:38.543Z,912.08
2019-03-01T06:15:38.508Z,912.10
2019-03-01T06:16:40.106Z,912.09
2019-03-01T06:17:38.462Z,912.14
2019-03-01T06:18:38.432Z,912.11
2019-03-01T06:19:38.389Z,912.14
2019-03-01T06:20:38.503Z,912.11
2019-03-01T06:21:38.301Z,912.11
2019-03-01T06:22:38.277Z,912.12
2019-03-01T06:23:38.244Z,912.08
2019-03-01T06:24:38.238Z,912.07
2019-03-01T06:25:38.216Z,912.09
2019-03-01T06:26:38.349Z,912.07
2019-03-01T06:27:38.119Z,912.11
2019-03-01T06:28:38.088Z,912.13
2019-03-01T06:29:38.057Z,912.12
2019-03-01T06:30:38.007Z,912.12
2019-03-01T06:31:37.993Z,912.12
2019-03-01T06:32:37.957Z,912.14
2019-03-01T06:33:37.912Z,912.13
2019-03-01T06:34:37.892Z,912.15
2019-03-01T06:35:37.851Z,912.15
2019-03-01T06:36:37.828Z,912.13
2019-03-01T06:37:37.828Z,912.15
2019-03-01T06:38:37.734Z,912.17
2019-03-01T06:39:37.714Z,912.17
2019-03-01T06:40:37.705Z,912.21
2019-03-01T06:41:37.688Z,912.23
2019-03-01T06:42:37.684Z,912.19
2019-03-01T06:43:37.587Z,912.23
2019-03-01T06:44:37.546Z,912.22
2019-03-01T06:45:37.528Z,912.26
2019-03-01T06:46:37.474Z,912.21
2019-03-01T06:47:37.470Z,912.24
2019-03-01T06:48:37.427Z,912.24
2019-03-01T06:49:37.401Z,912.23
2019-03-01T06:50:37.343Z,912.26
2019-03-01T06:51:37.328Z,912.29
2019-03-01T06:52:37.295Z,912.32
2019-03-01T06:53:37.264Z,912.35
2019-03-01T06:54:37.228Z,912.34
2019-03-01T06:55:37.193Z,912.35
2019-03-01T06:56:37.170Z,912.37
2019-03-01T06:57:37.135Z,912.35
2019-03-01T06:58:37.106Z,912.40
2019-03-01T06:59:37.055Z,912.40
2019-03-01T07:00:37.008Z,912.41
2019-03-01T07:01:36.977Z,912.44
2019-03-01T07:02:36.986Z,912.44
2019-03-01T07:03:36.923Z,912.42
2019-03-01T07:04:36.931Z,912.44
2019-03-01T07:05:36.846Z,912.44
2019-03-01T07:06:36.828Z,912.45
2019-03-01T07:07:36.795Z,912.45
2019-03-01T07:08:36.761Z,912.42
2019-03-01T07:09:36.737Z,912.47
2019-03-01T07:10:36.704Z,912.50
2019-03-01T07:11:36.670Z,912.50
2019-03-01T07:12:36.682Z,912.51
2019-03-01T07:13:36.784Z,912.56
2019-03-01T07:14:36.572Z,912.57
2019-03-01T07:15:36.521Z,912.60
2019-03-01T07:16:36.498Z,912.60
2019-03-01T07:17:36.457Z,912.61
2019-03-01T07:18:36.434Z,912.60
2019-03-01T07:19:36.530Z,912.63
2019-03-01T07:20:36.360Z,912.64
2019-03-01T07:21:36.325Z,912.65
2019-03-01T07:22:36.293Z,912.62
2019-03-01T07:23:37.007Z,912.65
2019-03-01T07:24:36.215Z,912.68
2019-03-01T07:25:36.198Z,912.65
2019-03-01T07:26:36.158Z,912.67
2019-03-01T07:27:36.139Z,912.72
2019-03-01T07:28:36.104Z,912.71
2019-03-01T07:29:36.048Z,912.75
2019-03-01T07:30:36.039Z,912.72
2019-03-01T07:31:36.007Z,912.75
2019-03-01T07:32:35.971Z,912.77
2019-03-01T07:33:35.941Z,912.80
2019-03-01T07:34:35.904Z,912.77
2019-03-01T07:35:35.879Z,912.79
2019-03-01T07:36:35.820Z,912.80
2019-03-01T07:37:35.821Z,912.83
2019-03-01T07:38:35.772Z,912.82
2019-03-01T07:39:35.757Z,912.88
2019-03-01T07:40:35.697Z,912.88
2019-03-01T07:41:35.670Z,912.89
2019-03-01T07:42:35.644Z,912.92
2019-03-01T07:43:35.611Z,912.93
2019-03-01T07:44:35.574Z,912.93
2019-03-01T07:45:35.540Z,912.92
2019-03-01T07:46:35.500Z,912.95
2019-03-01T07:47:35.477Z,912.92
2019-03-01T07:48:35.443Z,912.96
2019-03-01T07:49:35.410Z,912.94
2019-03-01T07:50:35.370Z,912.95
2019-03-01T07:51:36.059Z,912.96
2019-03-01T07:52:35.301Z,912.95
2019-03-01T07:53:36.124Z,912.96
2019-03-01T07:54:35.238Z,912.91
2019-03-01T07:55:35.213Z,912.93
2019-03-01T07:56:37.012Z,912.94
2019-03-01T07:57:35.132Z,912.97
2019-03-01T07:58:35.085Z,912.93
2019-03-01T07:59:38.012Z,912.94
2019-03-01T08:00:35.024Z,912.96
2019-03-01T08:01:35.034Z,912.93
2019-03-01T08:02:35.913Z,912.97
2019-03-01T08:03:34.949Z,912.96
2019-03-01T08:04:34.890Z,912.96
2019-03-01T08:05:35.606Z,912.96
2019-03-01T08:06:34.846Z,913.02
2019-03-01T08:07:34.825Z,913.00
2019-03-01T08:08:38.601Z,913.05
2019-03-01T08:09:36.134Z,913.04
2019-03-01T08:10:34.709Z,913.02
2019-03-01T08:11:34.686Z,913.07
2019-03-01T08:12:34.641Z,913.09
2019-03-01T08:13:34.595Z,913.13
2019-03-01T08:14:34.559Z,913.12
2019-03-01T08:15:34.534Z,913.14
2019-03-01T08:16:34.509Z,913.16
2019-03-01T08:17:34.475Z,913.20
2019-03-01T08:18:34.610Z,913.20
2019-03-01T08:19:34.414Z,913.26
2019-03-01T08:20:34.779Z,913.27
2019-03-01T08:21:34.343Z,913.29
2019-03-01T08:22:34.314Z,913.33
2019-03-01T08:23:35.046Z,913.32
2019-03-01T08:24:34.394Z,913.34
2019-03-01T08:25:34.216Z,913.41
2019-03-01T08:26:34.896Z,913.45
2019-03-01T08:27:34.124Z,913.49
2019-03-01T08:28:34.097Z,913.53
2019-03-01T08:29:34.266Z,913.57
2019-03-01T08:30:34.045Z,913.56
2019-03-01T08:31:34.122Z,913.59
2019-03-01T08:32:33.989Z,913.57
2019-03-01T08:33:33.927Z,913.59
2019-03-01T08:34:35.188Z,913.63
2019-03-01T08:35:33.941Z,913.64
2019-03-01T08:36:33.839Z,913.65
2019-03-01T08:37:33.827Z,913.66
2019-03-01T08:38:33.765Z,913.66
2019-03-01T08:39:36.605Z,913.66
2019-03-01T08:40:33.753Z,913.67
2019-03-01T08:41:33.674Z,913.73
2019-03-01T08:42:36.337Z,913.67
2019-03-01T08:43:35.670Z,913.70
2019-03-01T08:44:33.565Z,913.69
2019-03-01T08:45:33.749Z,913.71
2019-03-01T08:46:33.522Z,913.68
2019-03-01T08:47:33.500Z,913.68
2019-03-01T08:48:33.631Z,913.66
2019-03-01T08:49:33.417Z,913.67
2019-03-01T08:50:33.366Z,913.65
2019-03-01T08:51:33.431Z,913.64
2019-03-01T08:52:33.316Z,913.64
2019-03-01T08:53:33.261Z,913.62
2019-03-01T08:54:33.235Z,913.61
2019-03-01T08:55:35.578Z,913.61
2019-03-01T08:56:33.234Z,913.60
2019-03-01T08:57:33.149Z,913.62
2019-03-01T08:58:33.108Z,913.60
2019-03-01T08:59:33.094Z,913.58
2019-03-01T09:00:33.078Z,913.54
2019-03-01T09:01:33.023Z,913.56
2019-03-01T09:02:32.983Z,913.58
2019-03-01T09:03:32.931Z,913.62
2019-03-01T09:04:37.778Z,913.62
2019-03-01T09:05:32.885Z,913.60
2019-03-01T09:06:32.857Z,913.61
2019-03-01T09:07:32.853Z,913.59
2019-03-01T09:08:32.831Z,913.63
2019-03-01T09:09:32.752Z,913.63
2019-03-01T09:10:33.643Z,913.67
2019-03-01T09:11:32.711Z,913.67
2019-03-01T09:12:32.660Z,913.62
2019-03-01T09:13:32.600Z,913.59
2019-03-01T09:14:32.594Z,913.61
2019-03-01T09:15:32.562Z,913.62
2019-03-01T09:16:32.522Z,913.64
2019-03-01T09:17:32.641Z,913.66
2019-03-01T09:18:33.850Z,913.65
2019-03-01T09:19:32.422Z,913.68
2019-03-01T09:20:36.131Z,913.65
2019-03-01T09:21:32.335Z,913.68
2019-03-01T09:22:33.709Z,913.70
2019-03-01T09:23:32.293Z,913.68
2019-03-01T09:24:32.252Z,913.67
2019-03-01T09:25:32.202Z,913.65
2019-03-01T09:26:32.190Z,913.67
2019-03-01T09:27:32.140Z,913.69
2019-03-01T09:28:32.784Z,913.67
2019-03-01T09:29:40.999Z,913.70
2019-03-01T09:30:32.067Z,913.68
2019-03-01T09:31:32.008Z,913.66
2019-03-01T09:32:33.821Z,913.66
2019-03-01T09:33:31.953Z,913.68
2019-03-01T09:34:32.948Z,913.71
2019-03-01T09:35:31.905Z,913.72
2019-03-01T09:36:31.860Z,913.76
2019-03-01T09:37:32.463Z,913.72
2019-03-01T09:38:31.782Z,913.74
2019-03-01T09:39:32.678Z,913.75
2019-03-01T09:40:31.708Z,913.75
2019-03-01T09:41:31.674Z,913.77
2019-03-01T09:42:31.734Z,913.76
2019-03-01T09:43:31.610Z,913.73
2019-03-01T09:44:34.562Z,913.76
2019-03-01T09:45:36.147Z,913.79
2019-03-01T09:46:31.531Z,913.80
2019-03-01T09:47:33.532Z,913.80
2019-03-01T09:48:31.450Z,913.80
2019-03-01T09:49:31.432Z,913.80
2019-03-01T09:50:34.396Z,913.84
2019-03-01T09:51:31.370Z,913.88
2019-03-01T09:52:31.323Z,913.89
2019-03-01T09:53:34.132Z,913.89
2019-03-01T09:54:31.243Z,913.95
2019-03-01T09:55:31.225Z,913.97
2019-03-01T09:56:31.175Z,914.01
2019-03-01T09:57:31.199Z,914.00
2019-03-01T09:58:31.143Z,913.97
2019-03-01T09:59:31.090Z,914.03
2019-03-01T10:00:31.067Z,914.04
2019-03-01T10:01:31.022Z,914.03
2019-03-01T10:02:31.079Z,914.07
2019-03-01T10:03:30.963Z,914.11
2019-03-01T10:04:30.929Z,914.10
2019-03-01T10:05:30.912Z,914.08
2019-03-01T10:06:37.863Z,914.11
2019-03-01T10:08:30.801Z,914.08
2019-03-01T10:09:30.757Z,914.11
2019-03-01T10:10:30.732Z,914.12
2019-03-01T10:11:30.700Z,914.11
2019-03-01T10:12:30.716Z,914.11
2019-03-01T10:13:30.625Z,914.14
2019-03-01T10:14:30.593Z,914.18
2019-03-01T10:15:30.576Z,914.19
2019-03-01T10:16:30.535Z,914.19
2019-03-01T10:17:30.500Z,914.17
2019-03-01T10:18:30.472Z,914.15
2019-03-01T10:19:30.441Z,914.20
2019-03-01T10:20:30.457Z,914.18
2019-03-01T10:21:30.372Z,914.15
2019-03-01T10:22:30.349Z,914.19
2019-03-01T10:24:30.274Z,914.23
2019-03-01T10:25:30.245Z,914.25
2019-03-01T10:26:30.204Z,914.26
2019-03-01T10:27:30.164Z,914.28
2019-03-01T10:28:30.145Z,914.25
2019-03-01T10:29:30.126Z,914.29
2019-03-01T10:30:30.081Z,914.26
2019-03-01T10:31:30.042Z,914.27
2019-03-01T10:32:30.010Z,914.28
2019-03-01T10:33:29.994Z,914.30
2019-03-01T10:34:29.953Z,914.27
2019-03-01T10:35:29.911Z,914.33
2019-03-01T10:36:29.917Z,914.36
2019-03-01T10:37:29.837Z,914.38
2019-03-01T10:39:29.769Z,914.39
2019-03-01T10:40:29.750Z,914.42
2019-03-01T10:41:29.791Z,914.45
2019-03-01T10:42:29.684Z,914.47
2019-03-01T10:43:29.652Z,914.50
2019-03-01T10:44:29.634Z,914.50
2019-03-01T10:45:29.569Z,914.47
2019-03-01T10:46:29.558Z,914.48
2019-03-01T10:47:29.500Z,914.50
2019-03-01T10:48:29.648Z,914.50
2019-03-01T10:49:29.459Z,914.55
2019-03-01T10:50:29.417Z,914.54
2019-03-01T10:51:29.390Z,914.54
2019-03-01T10:52:29.361Z,914.57
2019-03-01T10:53:29.307Z,914.60
2019-03-01T10:54:29.446Z,914.64
2019-03-01T10:55:29.266Z,914.61
2019-03-01T10:56:29.223Z,914.65
2019-03-01T10:57:29.202Z,914.68
2019-03-01T10:58:29.161Z,914.69
2019-03-01T10:59:29.360Z,914.67
2019-03-01T11:00:29.085Z,914.67
2019-03-01T11:01:29.065Z,914.67
2019-03-01T11:02:29.049Z,914.68
2019-03-01T11:03:28.983Z,914.68
2019-03-01T11:04:28.983Z,914.73
2019-03-01T11:05:29.007Z,914.75
2019-03-01T11:06:28.974Z,914.77
2019-03-01T11:07:28.883Z,914.76
2019-03-01T11:08:28.845Z,914.76
2019-03-01T11:09:29.162Z,914.77
2019-03-01T11:10:28.780Z,914.81
2019-03-01T11:11:28.741Z,914.78
2019-03-01T11:12:28.721Z,914.83
2019-03-01T11:13:28.695Z,914.86
2019-03-01T11:14:28.641Z,914.85
2019-03-01T11:15:28.619Z,914.79
2019-03-01T11:16:28.588Z,914.86
2019-03-01T11:17:28.545Z,914.86
2019-03-01T11:18:28.522Z,914.84
2019-03-01T11:19:28.481Z,914.85
2019-03-01T11:20:28.508Z,914.84
2019-03-01T11:21:28.428Z,914.87
2019-03-01T11:22:28.396Z,914.85
2019-03-01T11:23:28.362Z,914.90
2019-03-01T11:24:28.319Z,914.91
2019-03-01T11:25:28.301Z,914.91
2019-03-01T11:26:28.267Z,914.92
2019-03-01T11:27:28.222Z,914.93
2019-03-01T11:28:28.196Z,914.93
2019-03-01T11:29:28.166Z,914.93
2019-03-01T11:30:28.145Z,914.93
2019-03-01T11:31:28.099Z,914.95
2019-03-01T11:32:28.081Z,914.95
2019-03-01T11:33:28.035Z,914.92
2019-03-01T11:34:28.020Z,914.93
2019-03-01T11:35:27.993Z,914.94
2019-03-01T11:36:27.942Z,914.98
2019-03-01T11:37:27.918Z,914.97
2019-03-01T11:38:27.889Z,914.95
2019-03-01T11:39:27.849Z,914.94
2019-03-01T11:40:27.835Z,914.93
2019-03-01T11:41:27.777Z,914.99
2019-03-01T11:42:27.751Z,914.99
2019-03-01T11:43:27.722Z,915.01
2019-03-01T11:44:27.711Z,915.04
2019-03-01T11:45:27.662Z,915.03
2019-03-01T11:47:27.607Z,915.01
2019-03-01T11:48:27.563Z,914.97
2019-03-01T11:49:27.673Z,914.98
2019-03-01T11:50:27.507Z,914.97
2019-03-01T11:51:27.855Z,914.92
2019-03-01T11:52:27.442Z,914.92
2019-03-01T11:53:27.417Z,914.95
2019-03-01T11:54:27.385Z,914.93
2019-03-01T11:55:27.363Z,914.93
2019-03-01T11:56:27.321Z,914.97
2019-03-01T11:57:27.281Z,914.96
2019-03-01T11:58:27.263Z,915.00
2019-03-01T11:59:27.236Z,914.98
2019-03-01T12:00:27.212Z,915.02
2019-03-01T12:01:27.175Z,915.06
2019-03-01T12:02:27.121Z,915.02
2019-03-01T12:03:27.134Z,915.07
2019-03-01T12:04:27.063Z,915.13
2019-03-01T12:05:27.028Z,915.15
2019-03-01T12:06:27.021Z,915.15
2019-03-01T12:07:26.987Z,915.15
2019-03-01T12:08:26.957Z,915.10
2019-03-01T12:09:26.909Z,915.09
2019-03-01T12:10:26.910Z,915.07
2019-03-01T12:11:26.853Z,915.07
2019-03-01T12:12:26.817Z,915.06
2019-03-01T12:13:26.821Z,915.10
2019-03-01T12:14:26.775Z,915.09
2019-03-01T12:15:26.757Z,915.09
2019-03-01T12:16:59.922Z,915.07
2019-03-01T12:17:26.690Z,915.07
2019-03-01T12:18:26.655Z,915.09
2019-03-01T12:19:26.612Z,915.07
2019-03-01T12:20:26.602Z,915.08
2019-03-01T12:21:26.569Z,915.09
2019-03-01T12:22:26.535Z,915.09
2019-03-01T12:23:26.549Z,915.13
2019-03-01T12:24:26.451Z,915.14
2019-03-01T12:25:26.439Z,915.17
2019-03-01T12:26:26.412Z,915.15
2019-03-01T12:27:26.376Z,915.18
2019-03-01T12:28:26.347Z,915.18
2019-03-01T12:29:26.318Z,915.21
2019-03-01T12:30:26.275Z,915.18
2019-03-01T12:31:26.252Z,915.20
2019-03-01T12:32:26.290Z,915.23
2019-03-01T12:33:26.195Z,915.22